sensor_id;sensor_type;location;lat;lon;timestamp;P1;durP1;ratioP1;P2;durP2;ratioP2
7665;SDS011;3875;46.562;4.898;2022-08-21T00:00:40;3.20;;;1.27;;
7665;SDS011;3875;46.562;4.898;2022-08-21T00:03:07;2.10;;;1.10;;
7665;SDS011;3875;46.562;4.898;2022-08-21T00:05:36;2.70;;;1.30;;
7665;SDS011;3875;46.562;4.898;2022-08-21T00:08:05;2.60;;;1.40;;
7665;SDS011;3875;46.562;4.898;2022-08-21T00:10:31;2.13;;;1.10;;
7665;SDS011;3875;46.562;4.898;2022-08-21T00:12:58;2.40;;;1.13;;
7665;SDS011;3875;46.562;4.898;2022-08-21T00:15:27;3.17;;;1.03;;
7665;SDS011;3875;46.562;4.898;2022-08-21T00:17:55;1.97;;;1.13;;
7665;SDS011;3875;46.562;4.898;2022-08-21T00:20:21;2.70;;;1.13;;
7665;SDS011;3875;46.562;4.898;2022-08-21T00:22:48;2.47;;;1.27;;
7665;SDS011;3875;46.562;4.898;2022-08-21T00:25:15;2.53;;;1.23;;
7665;SDS011;3875;46.562;4.898;2022-08-21T00:27:42;1.53;;;1.00;;
7665;SDS011;3875;46.562;4.898;2022-08-21T00:30:09;3.03;;;1.37;;
7665;SDS011;3875;46.562;4.898;2022-08-21T00:32:36;1.90;;;1.20;;
7665;SDS011;3875;46.562;4.898;2022-08-21T00:35:05;2.53;;;1.20;;
7665;SDS011;3875;46.562;4.898;2022-08-21T00:37:32;4.87;;;1.00;;
7665;SDS011;3875;46.562;4.898;2022-08-21T00:39:57;3.20;;;1.30;;
7665;SDS011;3875;46.562;4.898;2022-08-21T00:42:23;2.70;;;1.10;;
7665;SDS011;3875;46.562;4.898;2022-08-21T00:44:49;1.70;;;1.23;;
7665;SDS011;3875;46.562;4.898;2022-08-21T00:47:16;1.67;;;1.20;;
7665;SDS011;3875;46.562;4.898;2022-08-21T00:49:43;3.97;;;1.30;;
7665;SDS011;3875;46.562;4.898;2022-08-21T00:52:10;3.80;;;1.10;;
7665;SDS011;3875;46.562;4.898;2022-08-21T00:54:40;1.20;;;1.00;;
7665;SDS011;3875;46.562;4.898;2022-08-21T00:57:09;2.93;;;1.20;;
7665;SDS011;3875;46.562;4.898;2022-08-21T00:59:41;2.37;;;1.13;;
7665;SDS011;3875;46.562;4.898;2022-08-21T01:02:10;2.97;;;1.40;;
7665;SDS011;3875;46.562;4.898;2022-08-21T01:04:37;1.00;;;0.93;;
7665;SDS011;3875;46.562;4.898;2022-08-21T01:07:02;4.07;;;1.03;;
7665;SDS011;3875;46.562;4.898;2022-08-21T01:09:28;1.53;;;1.00;;
7665;SDS011;3875;46.562;4.898;2022-08-21T01:11:54;2.33;;;1.13;;
7665;SDS011;3875;46.562;4.898;2022-08-21T01:14:20;2.73;;;1.13;;
7665;SDS011;3875;46.562;4.898;2022-08-21T01:16:48;1.80;;;1.23;;
7665;SDS011;3875;46.562;4.898;2022-08-21T01:19:16;2.17;;;1.37;;
7665;SDS011;3875;46.562;4.898;2022-08-21T01:21:44;1.93;;;0.90;;
7665;SDS011;3875;46.562;4.898;2022-08-21T01:24:10;1.33;;;1.00;;
7665;SDS011;3875;46.562;4.898;2022-08-21T01:26:36;1.93;;;1.20;;
7665;SDS011;3875;46.562;4.898;2022-08-21T01:29:48;2.90;;;1.10;;
7665;SDS011;3875;46.562;4.898;2022-08-21T01:31:55;2.23;;;1.10;;
7665;SDS011;3875;46.562;4.898;2022-08-21T01:34:21;2.60;;;1.20;;
7665;SDS011;3875;46.562;4.898;2022-08-21T01:36:47;3.70;;;1.17;;
7665;SDS011;3875;46.562;4.898;2022-08-21T01:39:13;2.47;;;1.13;;
7665;SDS011;3875;46.562;4.898;2022-08-21T01:41:39;4.20;;;1.40;;
7665;SDS011;3875;46.562;4.898;2022-08-21T01:44:05;6.57;;;1.20;;
7665;SDS011;3875;46.562;4.898;2022-08-21T01:46:31;2.73;;;1.10;;
7665;SDS011;3875;46.562;4.898;2022-08-21T01:48:57;4.13;;;1.33;;
7665;SDS011;3875;46.562;4.898;2022-08-21T01:51:23;3.03;;;1.37;;
7665;SDS011;3875;46.562;4.898;2022-08-21T01:53:49;5.30;;;1.23;;
7665;SDS011;3875;46.562;4.898;2022-08-21T01:56:16;5.70;;;1.27;;
7665;SDS011;3875;46.562;4.898;2022-08-21T01:58:43;1.43;;;1.27;;
7665;SDS011;3875;46.562;4.898;2022-08-21T02:01:13;3.70;;;1.30;;
7665;SDS011;3875;46.562;4.898;2022-08-21T02:03:39;2.50;;;1.27;;
7665;SDS011;3875;46.562;4.898;2022-08-21T02:06:06;2.43;;;1.30;;
7665;SDS011;3875;46.562;4.898;2022-08-21T02:08:36;3.90;;;1.37;;
7665;SDS011;3875;46.562;4.898;2022-08-21T02:11:02;2.73;;;1.20;;
7665;SDS011;3875;46.562;4.898;2022-08-21T02:13:28;2.27;;;1.40;;
7665;SDS011;3875;46.562;4.898;2022-08-21T02:15:53;1.97;;;1.40;;
7665;SDS011;3875;46.562;4.898;2022-08-21T02:18:19;4.93;;;1.00;;
7665;SDS011;3875;46.562;4.898;2022-08-21T02:20:47;2.40;;;1.20;;
7665;SDS011;3875;46.562;4.898;2022-08-21T02:23:14;2.43;;;1.20;;
7665;SDS011;3875;46.562;4.898;2022-08-21T02:25:40;2.67;;;1.40;;
7665;SDS011;3875;46.562;4.898;2022-08-21T02:28:08;2.30;;;1.33;;
7665;SDS011;3875;46.562;4.898;2022-08-21T02:30:37;3.70;;;1.63;;
7665;SDS011;3875;46.562;4.898;2022-08-21T02:33:06;2.87;;;1.33;;
7665;SDS011;3875;46.562;4.898;2022-08-21T02:35:34;1.23;;;1.00;;
7665;SDS011;3875;46.562;4.898;2022-08-21T02:38:01;2.67;;;1.27;;
7665;SDS011;3875;46.562;4.898;2022-08-21T02:40:31;2.20;;;1.27;;
7665;SDS011;3875;46.562;4.898;2022-08-21T02:42:59;2.67;;;1.30;;
7665;SDS011;3875;46.562;4.898;2022-08-21T02:45:26;5.33;;;1.60;;
7665;SDS011;3875;46.562;4.898;2022-08-21T02:48:04;3.93;;;1.60;;
7665;SDS011;3875;46.562;4.898;2022-08-21T02:50:35;3.27;;;1.60;;
7665;SDS011;3875;46.562;4.898;2022-08-21T02:53:03;2.87;;;1.20;;
7665;SDS011;3875;46.562;4.898;2022-08-21T02:55:30;2.30;;;1.30;;
7665;SDS011;3875;46.562;4.898;2022-08-21T02:57:59;1.80;;;1.13;;
7665;SDS011;3875;46.562;4.898;2022-08-21T03:00:26;4.07;;;1.60;;
7665;SDS011;3875;46.562;4.898;2022-08-21T03:02:53;2.40;;;1.50;;
7665;SDS011;3875;46.562;4.898;2022-08-21T03:05:21;5.23;;;1.30;;
7665;SDS011;3875;46.562;4.898;2022-08-21T03:07:47;2.27;;;1.13;;
7665;SDS011;3875;46.562;4.898;2022-08-21T03:10:13;1.73;;;1.30;;
7665;SDS011;3875;46.562;4.898;2022-08-21T03:12:40;3.50;;;1.27;;
7665;SDS011;3875;46.562;4.898;2022-08-21T03:15:07;2.00;;;1.53;;
7665;SDS011;3875;46.562;4.898;2022-08-21T03:17:35;3.67;;;1.57;;
7665;SDS011;3875;46.562;4.898;2022-08-21T03:20:01;3.23;;;1.13;;
7665;SDS011;3875;46.562;4.898;2022-08-21T03:22:29;3.37;;;1.50;;
7665;SDS011;3875;46.562;4.898;2022-08-21T03:24:54;2.10;;;1.20;;
7665;SDS011;3875;46.562;4.898;2022-08-21T03:27:22;5.27;;;1.83;;
7665;SDS011;3875;46.562;4.898;2022-08-21T03:29:51;4.33;;;1.60;;
7665;SDS011;3875;46.562;4.898;2022-08-21T03:32:17;3.60;;;1.37;;
7665;SDS011;3875;46.562;4.898;2022-08-21T03:34:44;3.50;;;1.33;;
7665;SDS011;3875;46.562;4.898;2022-08-21T03:37:10;1.73;;;1.30;;
7665;SDS011;3875;46.562;4.898;2022-08-21T03:39:37;1.50;;;1.27;;
7665;SDS011;3875;46.562;4.898;2022-08-21T03:42:03;1.73;;;1.40;;
7665;SDS011;3875;46.562;4.898;2022-08-21T03:44:29;4.97;;;1.57;;
7665;SDS011;3875;46.562;4.898;2022-08-21T03:46:56;1.63;;;1.30;;
7665;SDS011;3875;46.562;4.898;2022-08-21T03:49:23;1.93;;;1.13;;
7665;SDS011;3875;46.562;4.898;2022-08-21T03:51:49;2.47;;;1.67;;
7665;SDS011;3875;46.562;4.898;2022-08-21T03:54:15;1.93;;;1.10;;
7665;SDS011;3875;46.562;4.898;2022-08-21T03:56:41;2.43;;;1.43;;
7665;SDS011;3875;46.562;4.898;2022-08-21T03:59:07;4.80;;;1.57;;
7665;SDS011;3875;46.562;4.898;2022-08-21T04:01:33;3.87;;;1.60;;
7665;SDS011;3875;46.562;4.898;2022-08-21T04:03:59;2.63;;;1.50;;
7665;SDS011;3875;46.562;4.898;2022-08-21T04:06:25;2.57;;;1.40;;
7665;SDS011;3875;46.562;4.898;2022-08-21T04:08:51;1.23;;;1.13;;
7665;SDS011;3875;46.562;4.898;2022-08-21T04:11:18;2.30;;;1.30;;
7665;SDS011;3875;46.562;4.898;2022-08-21T04:13:44;1.70;;;1.13;;
7665;SDS011;3875;46.562;4.898;2022-08-21T04:16:11;3.60;;;1.73;;
7665;SDS011;3875;46.562;4.898;2022-08-21T04:18:37;4.03;;;1.37;;
7665;SDS011;3875;46.562;4.898;2022-08-21T04:21:03;3.70;;;1.63;;
7665;SDS011;3875;46.562;4.898;2022-08-21T04:23:29;3.10;;;1.47;;
7665;SDS011;3875;46.562;4.898;2022-08-21T04:25:55;3.53;;;1.50;;
7665;SDS011;3875;46.562;4.898;2022-08-21T04:28:22;2.13;;;1.20;;
7665;SDS011;3875;46.562;4.898;2022-08-21T04:30:50;2.90;;;1.83;;
7665;SDS011;3875;46.562;4.898;2022-08-21T04:33:16;1.87;;;1.63;;
7665;SDS011;3875;46.562;4.898;2022-08-21T04:35:43;3.03;;;1.60;;
7665;SDS011;3875;46.562;4.898;2022-08-21T04:38:08;5.43;;;1.57;;
7665;SDS011;3875;46.562;4.898;2022-08-21T04:40:34;1.63;;;1.20;;
7665;SDS011;3875;46.562;4.898;2022-08-21T04:43:02;4.40;;;1.60;;
7665;SDS011;3875;46.562;4.898;2022-08-21T04:45:34;1.97;;;1.43;;
7665;SDS011;3875;46.562;4.898;2022-08-21T04:48:02;3.83;;;1.80;;
7665;SDS011;3875;46.562;4.898;2022-08-21T04:53:18;1.93;;;1.50;;
7665;SDS011;3875;46.562;4.898;2022-08-21T04:56:13;4.03;;;1.30;;
7665;SDS011;3875;46.562;4.898;2022-08-21T04:58:43;2.93;;;1.50;;
7665;SDS011;3875;46.562;4.898;2022-08-21T05:01:11;4.27;;;1.20;;
7665;SDS011;3875;46.562;4.898;2022-08-21T05:03:42;3.17;;;1.10;;
7665;SDS011;3875;46.562;4.898;2022-08-21T05:06:09;2.63;;;1.50;;
7665;SDS011;3875;46.562;4.898;2022-08-21T05:08:36;1.70;;;1.47;;
7665;SDS011;3875;46.562;4.898;2022-08-21T05:11:03;2.50;;;1.30;;
7665;SDS011;3875;46.562;4.898;2022-08-21T05:13:29;2.63;;;1.30;;
7665;SDS011;3875;46.562;4.898;2022-08-21T05:15:55;1.20;;;1.10;;
7665;SDS011;3875;46.562;4.898;2022-08-21T05:18:21;3.23;;;1.30;;
7665;SDS011;3875;46.562;4.898;2022-08-21T05:20:47;1.40;;;1.10;;
7665;SDS011;3875;46.562;4.898;2022-08-21T05:23:13;5.57;;;1.37;;
7665;SDS011;3875;46.562;4.898;2022-08-21T05:25:40;1.30;;;1.20;;
7665;SDS011;3875;46.562;4.898;2022-08-21T05:28:06;4.07;;;1.57;;
7665;SDS011;3875;46.562;4.898;2022-08-21T05:30:33;4.93;;;1.40;;
7665;SDS011;3875;46.562;4.898;2022-08-21T05:33:00;4.13;;;1.53;;
7665;SDS011;3875;46.562;4.898;2022-08-21T05:35:27;1.30;;;1.20;;
7665;SDS011;3875;46.562;4.898;2022-08-21T05:37:54;1.60;;;1.50;;
7665;SDS011;3875;46.562;4.898;2022-08-21T05:40:21;1.87;;;1.27;;
7665;SDS011;3875;46.562;4.898;2022-08-21T05:42:47;1.60;;;1.30;;
7665;SDS011;3875;46.562;4.898;2022-08-21T05:45:13;1.50;;;1.20;;
7665;SDS011;3875;46.562;4.898;2022-08-21T05:47:38;1.40;;;1.30;;
7665;SDS011;3875;46.562;4.898;2022-08-21T05:50:04;2.40;;;1.20;;
7665;SDS011;3875;46.562;4.898;2022-08-21T05:52:31;4.87;;;1.30;;
7665;SDS011;3875;46.562;4.898;2022-08-21T05:54:56;1.90;;;1.60;;
7665;SDS011;3875;46.562;4.898;2022-08-21T05:57:22;2.37;;;1.20;;
7665;SDS011;3875;46.562;4.898;2022-08-21T05:59:48;4.23;;;1.30;;
7665;SDS011;3875;46.562;4.898;2022-08-21T06:02:16;1.93;;;1.47;;
7665;SDS011;3875;46.562;4.898;2022-08-21T06:04:43;2.07;;;1.43;;
7665;SDS011;3875;46.562;4.898;2022-08-21T06:07:08;2.43;;;1.50;;
7665;SDS011;3875;46.562;4.898;2022-08-21T06:09:34;2.60;;;1.60;;
7665;SDS011;3875;46.562;4.898;2022-08-21T06:12:04;6.57;;;1.50;;
7665;SDS011;3875;46.562;4.898;2022-08-21T06:14:31;2.47;;;1.30;;
7665;SDS011;3875;46.562;4.898;2022-08-21T06:17:03;1.63;;;1.30;;
7665;SDS011;3875;46.562;4.898;2022-08-21T06:19:35;5.13;;;1.60;;
7665;SDS011;3875;46.562;4.898;2022-08-21T06:22:02;3.77;;;1.60;;
7665;SDS011;3875;46.562;4.898;2022-08-21T06:24:29;3.07;;;1.60;;
7665;SDS011;3875;46.562;4.898;2022-08-21T06:26:55;2.80;;;1.50;;
7665;SDS011;3875;46.562;4.898;2022-08-21T06:29:21;2.70;;;1.40;;
7665;SDS011;3875;46.562;4.898;2022-08-21T06:31:48;3.73;;;1.70;;
7665;SDS011;3875;46.562;4.898;2022-08-21T06:34:16;6.53;;;1.40;;
7665;SDS011;3875;46.562;4.898;2022-08-21T06:36:43;6.13;;;1.50;;
7665;SDS011;3875;46.562;4.898;2022-08-21T06:39:09;1.83;;;1.13;;
7665;SDS011;3875;46.562;4.898;2022-08-21T06:41:34;2.37;;;1.30;;
7665;SDS011;3875;46.562;4.898;2022-08-21T06:44:00;1.40;;;1.20;;
7665;SDS011;3875;46.562;4.898;2022-08-21T06:46:27;4.70;;;1.47;;
7665;SDS011;3875;46.562;4.898;2022-08-21T06:48:54;2.93;;;1.60;;
7665;SDS011;3875;46.562;4.898;2022-08-21T06:51:20;7.60;;;1.53;;
7665;SDS011;3875;46.562;4.898;2022-08-21T06:53:46;6.10;;;2.10;;
7665;SDS011;3875;46.562;4.898;2022-08-21T06:56:12;4.83;;;1.50;;
7665;SDS011;3875;46.562;4.898;2022-08-21T06:58:38;4.07;;;1.70;;
7665;SDS011;3875;46.562;4.898;2022-08-21T07:01:04;6.97;;;2.00;;
7665;SDS011;3875;46.562;4.898;2022-08-21T07:03:38;6.60;;;2.00;;
7665;SDS011;3875;46.562;4.898;2022-08-21T07:06:06;2.90;;;1.80;;
7665;SDS011;3875;46.562;4.898;2022-08-21T07:08:33;4.53;;;1.73;;
7665;SDS011;3875;46.562;4.898;2022-08-21T07:11:01;6.20;;;2.23;;
7665;SDS011;3875;46.562;4.898;2022-08-21T07:13:30;3.80;;;2.00;;
7665;SDS011;3875;46.562;4.898;2022-08-21T07:15:56;3.87;;;1.90;;
7665;SDS011;3875;46.562;4.898;2022-08-21T07:18:22;5.57;;;2.20;;
7665;SDS011;3875;46.562;4.898;2022-08-21T07:20:47;6.03;;;1.97;;
7665;SDS011;3875;46.562;4.898;2022-08-21T07:23:23;5.60;;;2.17;;
7665;SDS011;3875;46.562;4.898;2022-08-21T07:25:53;6.33;;;2.03;;
7665;SDS011;3875;46.562;4.898;2022-08-21T07:28:19;4.93;;;1.97;;
7665;SDS011;3875;46.562;4.898;2022-08-21T07:30:45;3.43;;;1.87;;
7665;SDS011;3875;46.562;4.898;2022-08-21T07:33:15;10.10;;;1.70;;
7665;SDS011;3875;46.562;4.898;2022-08-21T07:35:41;7.23;;;2.03;;
7665;SDS011;3875;46.562;4.898;2022-08-21T07:38:07;6.03;;;2.10;;
7665;SDS011;3875;46.562;4.898;2022-08-21T07:40:33;4.60;;;2.30;;
7665;SDS011;3875;46.562;4.898;2022-08-21T07:42:58;4.77;;;1.70;;
7665;SDS011;3875;46.562;4.898;2022-08-21T07:45:24;6.63;;;2.20;;
7665;SDS011;3875;46.562;4.898;2022-08-21T07:47:50;4.20;;;1.90;;
7665;SDS011;3875;46.562;4.898;2022-08-21T07:50:17;3.60;;;1.70;;
7665;SDS011;3875;46.562;4.898;2022-08-21T07:52:43;6.93;;;1.50;;
7665;SDS011;3875;46.562;4.898;2022-08-21T07:55:11;7.83;;;2.30;;
7665;SDS011;3875;46.562;4.898;2022-08-21T07:57:38;4.00;;;1.97;;
7665;SDS011;3875;46.562;4.898;2022-08-21T08:00:04;5.27;;;1.90;;
7665;SDS011;3875;46.562;4.898;2022-08-21T08:02:35;7.33;;;2.27;;
7665;SDS011;3875;46.562;4.898;2022-08-21T08:05:02;4.33;;;1.77;;
7665;SDS011;3875;46.562;4.898;2022-08-21T08:07:29;4.00;;;1.83;;
7665;SDS011;3875;46.562;4.898;2022-08-21T08:09:55;3.97;;;2.00;;
7665;SDS011;3875;46.562;4.898;2022-08-21T08:12:21;6.03;;;2.33;;
7665;SDS011;3875;46.562;4.898;2022-08-21T08:14:47;3.77;;;2.00;;
7665;SDS011;3875;46.562;4.898;2022-08-21T08:17:13;5.77;;;2.30;;
7665;SDS011;3875;46.562;4.898;2022-08-21T08:19:39;6.93;;;1.67;;
7665;SDS011;3875;46.562;4.898;2022-08-21T08:22:14;6.07;;;1.70;;
7665;SDS011;3875;46.562;4.898;2022-08-21T08:24:41;3.37;;;1.77;;
7665;SDS011;3875;46.562;4.898;2022-08-21T08:27:07;9.00;;;1.90;;
7665;SDS011;3875;46.562;4.898;2022-08-21T08:29:33;7.07;;;1.97;;
7665;SDS011;3875;46.562;4.898;2022-08-21T08:31:58;4.43;;;1.97;;
7665;SDS011;3875;46.562;4.898;2022-08-21T08:34:24;4.50;;;1.87;;
7665;SDS011;3875;46.562;4.898;2022-08-21T08:36:50;5.53;;;1.93;;
7665;SDS011;3875;46.562;4.898;2022-08-21T08:39:16;2.83;;;1.53;;
7665;SDS011;3875;46.562;4.898;2022-08-21T08:41:41;7.37;;;2.07;;
7665;SDS011;3875;46.562;4.898;2022-08-21T08:44:12;5.23;;;2.23;;
7665;SDS011;3875;46.562;4.898;2022-08-21T08:46:41;5.47;;;1.87;;
7665;SDS011;3875;46.562;4.898;2022-08-21T08:49:13;4.83;;;1.90;;
7665;SDS011;3875;46.562;4.898;2022-08-21T08:52:06;9.47;;;1.80;;
7665;SDS011;3875;46.562;4.898;2022-08-21T08:54:42;4.67;;;1.80;;
7665;SDS011;3875;46.562;4.898;2022-08-21T08:57:29;4.97;;;1.80;;
7665;SDS011;3875;46.562;4.898;2022-08-21T08:59:58;4.67;;;2.00;;
7665;SDS011;3875;46.562;4.898;2022-08-21T09:02:30;7.40;;;2.17;;
7665;SDS011;3875;46.562;4.898;2022-08-21T09:04:58;2.60;;;2.30;;
7665;SDS011;3875;46.562;4.898;2022-08-21T09:07:29;5.47;;;2.70;;
7665;SDS011;3875;46.562;4.898;2022-08-21T09:10:03;4.87;;;3.07;;
7665;SDS011;3875;46.562;4.898;2022-08-21T09:12:56;7.40;;;2.77;;
7665;SDS011;3875;46.562;4.898;2022-08-21T09:16:05;7.30;;;2.20;;
7665;SDS011;3875;46.562;4.898;2022-08-21T09:18:47;6.47;;;2.53;;
7665;SDS011;3875;46.562;4.898;2022-08-21T09:26:26;4.80;;;2.30;;
7665;SDS011;3875;46.562;4.898;2022-08-21T09:29:04;4.87;;;2.13;;
7665;SDS011;3875;46.562;4.898;2022-08-21T09:31:33;4.90;;;1.80;;
7665;SDS011;3875;46.562;4.898;2022-08-21T09:34:05;2.90;;;2.00;;
7665;SDS011;3875;46.562;4.898;2022-08-21T09:36:35;6.80;;;1.67;;
7665;SDS011;3875;46.562;4.898;2022-08-21T09:39:10;3.43;;;1.83;;
7665;SDS011;3875;46.562;4.898;2022-08-21T09:41:39;4.70;;;2.00;;
7665;SDS011;3875;46.562;4.898;2022-08-21T09:44:06;2.20;;;1.67;;
7665;SDS011;3875;46.562;4.898;2022-08-21T09:46:33;2.57;;;1.53;;
7665;SDS011;3875;46.562;4.898;2022-08-21T09:49:00;3.90;;;1.83;;
7665;SDS011;3875;46.562;4.898;2022-08-21T09:51:29;3.80;;;1.77;;
7665;SDS011;3875;46.562;4.898;2022-08-21T09:59:35;5.63;;;2.07;;
7665;SDS011;3875;46.562;4.898;2022-08-21T10:04:48;3.27;;;2.03;;
7665;SDS011;3875;46.562;4.898;2022-08-21T10:07:19;4.63;;;1.93;;
7665;SDS011;3875;46.562;4.898;2022-08-21T10:09:46;5.27;;;2.03;;
7665;SDS011;3875;46.562;4.898;2022-08-21T10:12:24;4.80;;;2.20;;
7665;SDS011;3875;46.562;4.898;2022-08-21T10:15:20;7.87;;;1.93;;
7665;SDS011;3875;46.562;4.898;2022-08-21T10:21:05;5.80;;;2.17;;
7665;SDS011;3875;46.562;4.898;2022-08-21T10:29:50;3.80;;;1.83;;
7665;SDS011;3875;46.562;4.898;2022-08-21T10:35:28;4.37;;;2.20;;
7665;SDS011;3875;46.562;4.898;2022-08-21T10:43:23;3.90;;;2.20;;
7665;SDS011;3875;46.562;4.898;2022-08-21T10:56:44;3.30;;;1.50;;
7665;SDS011;3875;46.562;4.898;2022-08-21T11:04:37;5.77;;;1.50;;
7665;SDS011;3875;46.562;4.898;2022-08-21T11:07:47;4.43;;;1.70;;
7665;SDS011;3875;46.562;4.898;2022-08-21T11:10:21;4.33;;;1.60;;
7665;SDS011;3875;46.562;4.898;2022-08-21T11:13:12;2.37;;;1.30;;
7665;SDS011;3875;46.562;4.898;2022-08-21T11:23:50;3.37;;;1.30;;
7665;SDS011;3875;46.562;4.898;2022-08-21T11:29:13;2.87;;;1.97;;
7665;SDS011;3875;46.562;4.898;2022-08-21T11:31:58;3.73;;;1.50;;
7665;SDS011;3875;46.562;4.898;2022-08-21T11:39:44;2.67;;;1.60;;
7665;SDS011;3875;46.562;4.898;2022-08-21T11:42:39;2.70;;;1.50;;
7665;SDS011;3875;46.562;4.898;2022-08-21T11:45:33;3.90;;;1.58;;
7665;SDS011;3875;46.562;4.898;2022-08-21T11:50:47;3.57;;;1.50;;
7665;SDS011;3875;46.562;4.898;2022-08-21T11:56:41;2.77;;;1.73;;
7665;SDS011;3875;46.562;4.898;2022-08-21T11:59:23;4.13;;;1.58;;
7665;SDS011;3875;46.562;4.898;2022-08-21T12:01:59;1.63;;;1.48;;
7665;SDS011;3875;46.562;4.898;2022-08-21T12:04:30;5.57;;;2.05;;
7665;SDS011;3875;46.562;4.898;2022-08-21T12:07:16;1.75;;;1.48;;
7665;SDS011;3875;46.562;4.898;2022-08-21T12:09:55;3.85;;;1.80;;
7665;SDS011;3875;46.562;4.898;2022-08-21T12:12:26;5.35;;;2.08;;
7665;SDS011;3875;46.562;4.898;2022-08-21T12:17:56;6.93;;;2.15;;
7665;SDS011;3875;46.562;4.898;2022-08-21T12:23:13;4.53;;;1.75;;
7665;SDS011;3875;46.562;4.898;2022-08-21T12:28:13;5.40;;;2.00;;
7665;SDS011;3875;46.562;4.898;2022-08-21T12:30:46;3.15;;;1.55;;
7665;SDS011;3875;46.562;4.898;2022-08-21T12:33:24;3.55;;;1.80;;
7665;SDS011;3875;46.562;4.898;2022-08-21T12:36:03;3.75;;;1.85;;
7665;SDS011;3875;46.562;4.898;2022-08-21T12:41:19;3.05;;;1.80;;
7665;SDS011;3875;46.562;4.898;2022-08-21T12:43:59;4.55;;;1.80;;
7665;SDS011;3875;46.562;4.898;2022-08-21T12:46:37;3.47;;;1.95;;
7665;SDS011;3875;46.562;4.898;2022-08-21T12:52:09;2.70;;;1.87;;
7665;SDS011;3875;46.562;4.898;2022-08-21T12:54:42;3.08;;;1.70;;
7665;SDS011;3875;46.562;4.898;2022-08-21T12:57:17;4.20;;;1.97;;
7665;SDS011;3875;46.562;4.898;2022-08-21T12:59:51;4.87;;;2.00;;
7665;SDS011;3875;46.562;4.898;2022-08-21T13:02:22;8.33;;;2.00;;
7665;SDS011;3875;46.562;4.898;2022-08-21T13:04:51;4.77;;;2.20;;
7665;SDS011;3875;46.562;4.898;2022-08-21T13:07:29;3.40;;;1.97;;
7665;SDS011;3875;46.562;4.898;2022-08-21T13:10:00;6.27;;;2.13;;
7665;SDS011;3875;46.562;4.898;2022-08-21T13:12:37;3.10;;;2.03;;
7665;SDS011;3875;46.562;4.898;2022-08-21T13:15:04;5.10;;;2.17;;
7665;SDS011;3875;46.562;4.898;2022-08-21T13:17:31;3.00;;;1.87;;
7665;SDS011;3875;46.562;4.898;2022-08-21T13:20:03;2.47;;;1.80;;
7665;SDS011;3875;46.562;4.898;2022-08-21T13:22:40;3.97;;;2.10;;
7665;SDS011;3875;46.562;4.898;2022-08-21T13:25:14;3.53;;;1.70;;
7665;SDS011;3875;46.562;4.898;2022-08-21T13:27:43;2.67;;;1.90;;
7665;SDS011;3875;46.562;4.898;2022-08-21T13:30:20;3.28;;;1.55;;
7665;SDS011;3875;46.562;4.898;2022-08-21T13:32:51;4.20;;;2.20;;
7665;SDS011;3875;46.562;4.898;2022-08-21T13:35:22;4.85;;;1.98;;
7665;SDS011;3875;46.562;4.898;2022-08-21T13:37:51;2.47;;;1.80;;
7665;SDS011;3875;46.562;4.898;2022-08-21T13:40:20;4.00;;;2.20;;
7665;SDS011;3875;46.562;4.898;2022-08-21T13:42:56;3.60;;;1.95;;
7665;SDS011;3875;46.562;4.898;2022-08-21T13:45:25;4.10;;;2.00;;
7665;SDS011;3875;46.562;4.898;2022-08-21T13:47:57;5.40;;;2.05;;
7665;SDS011;3875;46.562;4.898;2022-08-21T13:50:26;3.90;;;1.83;;
7665;SDS011;3875;46.562;4.898;2022-08-21T13:52:57;7.00;;;2.42;;
7665;SDS011;3875;46.562;4.898;2022-08-21T13:55:25;4.60;;;2.10;;
7665;SDS011;3875;46.562;4.898;2022-08-21T13:57:59;2.80;;;1.67;;
7665;SDS011;3875;46.562;4.898;2022-08-21T14:00:27;3.92;;;2.05;;
7665;SDS011;3875;46.562;4.898;2022-08-21T14:02:59;2.57;;;1.67;;
7665;SDS011;3875;46.562;4.898;2022-08-21T14:05:31;4.22;;;1.48;;
7665;SDS011;3875;46.562;4.898;2022-08-21T14:08:10;3.17;;;1.83;;
7665;SDS011;3875;46.562;4.898;2022-08-21T14:10:44;6.40;;;1.80;;
7665;SDS011;3875;46.562;4.898;2022-08-21T14:15:58;3.73;;;1.90;;
7665;SDS011;3875;46.562;4.898;2022-08-21T14:18:26;7.03;;;1.80;;
7665;SDS011;3875;46.562;4.898;2022-08-21T14:21:08;6.03;;;1.70;;
7665;SDS011;3875;46.562;4.898;2022-08-21T14:23:35;5.17;;;1.60;;
7665;SDS011;3875;46.562;4.898;2022-08-21T14:26:02;4.27;;;1.73;;
7665;SDS011;3875;46.562;4.898;2022-08-21T14:28:31;4.00;;;1.83;;
7665;SDS011;3875;46.562;4.898;2022-08-21T14:31:19;5.10;;;1.90;;
7665;SDS011;3875;46.562;4.898;2022-08-21T14:33:47;5.50;;;1.97;;
7665;SDS011;3875;46.562;4.898;2022-08-21T14:36:13;3.10;;;1.80;;
7665;SDS011;3875;46.562;4.898;2022-08-21T14:38:40;2.70;;;1.60;;
7665;SDS011;3875;46.562;4.898;2022-08-21T14:41:16;3.70;;;1.67;;
7665;SDS011;3875;46.562;4.898;2022-08-21T14:43:45;6.53;;;1.85;;
7665;SDS011;3875;46.562;4.898;2022-08-21T14:46:13;3.63;;;1.50;;
7665;SDS011;3875;46.562;4.898;2022-08-21T14:48:44;2.77;;;1.87;;
7665;SDS011;3875;46.562;4.898;2022-08-21T14:51:11;4.00;;;1.70;;
7665;SDS011;3875;46.562;4.898;2022-08-21T14:53:38;3.70;;;1.73;;
7665;SDS011;3875;46.562;4.898;2022-08-21T14:56:04;4.75;;;1.75;;
7665;SDS011;3875;46.562;4.898;2022-08-21T14:58:36;5.20;;;1.97;;
7665;SDS011;3875;46.562;4.898;2022-08-21T15:01:05;2.13;;;1.73;;
7665;SDS011;3875;46.562;4.898;2022-08-21T15:03:32;16.75;;;1.90;;
7665;SDS011;3875;46.562;4.898;2022-08-21T15:05:59;3.17;;;1.60;;
7665;SDS011;3875;46.562;4.898;2022-08-21T15:08:25;2.73;;;1.47;;
7665;SDS011;3875;46.562;4.898;2022-08-21T15:10:52;4.67;;;1.80;;
7665;SDS011;3875;46.562;4.898;2022-08-21T15:13:18;2.87;;;1.80;;
7665;SDS011;3875;46.562;4.898;2022-08-21T15:15:45;6.18;;;1.70;;
7665;SDS011;3875;46.562;4.898;2022-08-21T15:18:13;3.00;;;1.60;;
7665;SDS011;3875;46.562;4.898;2022-08-21T15:20:39;5.03;;;1.60;;
7665;SDS011;3875;46.562;4.898;2022-08-21T15:23:05;1.30;;;1.20;;
7665;SDS011;3875;46.562;4.898;2022-08-21T15:25:32;4.93;;;1.67;;
7665;SDS011;3875;46.562;4.898;2022-08-21T15:27:59;2.07;;;1.40;;
7665;SDS011;3875;46.562;4.898;2022-08-21T15:30:25;3.22;;;1.67;;
7665;SDS011;3875;46.562;4.898;2022-08-21T15:32:52;5.83;;;1.70;;
7665;SDS011;3875;46.562;4.898;2022-08-21T15:35:18;4.47;;;1.60;;
7665;SDS011;3875;46.562;4.898;2022-08-21T15:37:43;6.77;;;1.90;;
7665;SDS011;3875;46.562;4.898;2022-08-21T15:40:09;3.77;;;2.10;;
7665;SDS011;3875;46.562;4.898;2022-08-21T15:42:38;2.35;;;1.70;;
7665;SDS011;3875;46.562;4.898;2022-08-21T15:45:06;2.40;;;1.40;;
7665;SDS011;3875;46.562;4.898;2022-08-21T15:47:33;5.15;;;1.92;;
7665;SDS011;3875;46.562;4.898;2022-08-21T15:50:01;3.00;;;1.60;;
7665;SDS011;3875;46.562;4.898;2022-08-21T15:52:29;3.58;;;1.80;;
7665;SDS011;3875;46.562;4.898;2022-08-21T15:54:55;2.17;;;1.60;;
7665;SDS011;3875;46.562;4.898;2022-08-21T15:57:21;3.65;;;1.88;;
7665;SDS011;3875;46.562;4.898;2022-08-21T15:59:49;3.87;;;1.80;;
7665;SDS011;3875;46.562;4.898;2022-08-21T16:02:22;4.55;;;1.65;;
7665;SDS011;3875;46.562;4.898;2022-08-21T16:04:50;3.38;;;1.70;;
7665;SDS011;3875;46.562;4.898;2022-08-21T16:07:17;2.30;;;1.23;;
7665;SDS011;3875;46.562;4.898;2022-08-21T16:09:43;4.78;;;1.50;;
7665;SDS011;3875;46.562;4.898;2022-08-21T16:12:13;2.58;;;1.40;;
7665;SDS011;3875;46.562;4.898;2022-08-21T16:14:47;4.07;;;1.77;;
7665;SDS011;3875;46.562;4.898;2022-08-21T16:17:14;6.10;;;1.57;;
7665;SDS011;3875;46.562;4.898;2022-08-21T16:19:40;6.10;;;1.60;;
7665;SDS011;3875;46.562;4.898;2022-08-21T16:22:06;3.80;;;1.42;;
7665;SDS011;3875;46.562;4.898;2022-08-21T16:24:32;5.27;;;1.70;;
7665;SDS011;3875;46.562;4.898;2022-08-21T16:26:58;4.22;;;1.50;;
7665;SDS011;3875;46.562;4.898;2022-08-21T16:29:26;6.28;;;1.75;;
7665;SDS011;3875;46.562;4.898;2022-08-21T16:31:55;4.75;;;1.63;;
7665;SDS011;3875;46.562;4.898;2022-08-21T16:34:21;6.17;;;1.80;;
7665;SDS011;3875;46.562;4.898;2022-08-21T16:36:47;3.88;;;1.58;;
7665;SDS011;3875;46.562;4.898;2022-08-21T16:39:13;2.03;;;1.33;;
7665;SDS011;3875;46.562;4.898;2022-08-21T16:41:39;2.37;;;1.30;;
7665;SDS011;3875;46.562;4.898;2022-08-21T16:44:05;2.70;;;1.53;;
7665;SDS011;3875;46.562;4.898;2022-08-21T16:46:35;2.22;;;1.63;;
7665;SDS011;3875;46.562;4.898;2022-08-21T16:49:03;2.20;;;1.30;;
7665;SDS011;3875;46.562;4.898;2022-08-21T16:51:29;5.85;;;1.60;;
7665;SDS011;3875;46.562;4.898;2022-08-21T16:53:58;5.37;;;1.60;;
7665;SDS011;3875;46.562;4.898;2022-08-21T16:56:24;3.92;;;1.60;;